KFDK

Frederick Municipal Airport

Frederick, Maryland, USA
METAR KFDK 150051Z 00000KT 10SM SCT120 24/18 A2998 RMK LTG DSNT NE
Observed Flight Rules
Aug-15 @ 00:51 UTC (3 hours ago) Visual Flight Rules
Visibility Clouds
10 miles
  • Scattered at 12,000' AGL
Temperatures Readings
Current 24°C / 75°F
Dewpoint 18°C / 64°F
Humidity 69%
Altimeter 29.98" Hg
Pressure 1015 hPa
Elevation 92
METAR KFDK 150051Z 00000KT 10SM SCT120 24/18 A2998 RMK LTG DSNT NE
Observed Flight Rules
Aug-15 @ 00:51 UTC
(3 hours ago)
VFR
Clouds
  • Scattered at 12,000' AGL
Temperature Dewpoint
24°C / 75°F 18°C / 64°F
Humidity Altimeter Pressure
69% 29.98" Hg 1015 hPa